createdAt,value
2022-09-16T00:02:40.069Z,6.45
2022-09-16T00:05:51.436Z,6.57
2022-09-16T00:09:02.293Z,6.60
2022-09-16T00:12:11.269Z,6.68
2022-09-16T00:15:20.746Z,7.90
2022-09-16T00:18:29.951Z,6.90
2022-09-16T00:21:39.463Z,6.97
2022-09-16T00:24:51.460Z,6.65
2022-09-16T00:28:00.438Z,6.45
2022-09-16T00:31:09.440Z,5.53
2022-09-16T00:34:18.480Z,6.30
2022-09-16T00:37:27.476Z,6.40
2022-09-16T00:40:45.670Z,5.85
2022-09-16T00:43:57.705Z,5.65
2022-09-16T00:47:06.972Z,6.28
2022-09-16T00:50:18.909Z,5.93
2022-09-16T00:53:30.295Z,6.63
2022-09-16T00:56:43.153Z,5.80
2022-09-16T00:59:54.862Z,5.97
2022-09-16T01:03:03.797Z,6.07
2022-09-16T01:06:14.142Z,5.65
2022-09-16T01:09:25.787Z,5.05
2022-09-16T01:12:36.398Z,5.30
2022-09-16T01:19:01.016Z,5.20
2022-09-16T01:22:21.068Z,5.25
2022-09-16T01:25:38.605Z,4.75
2022-09-16T01:29:24.021Z,4.85
2022-09-16T01:32:41.114Z,4.15
2022-09-16T01:36:02.168Z,4.85
2022-09-16T01:39:20.099Z,5.97
2022-09-16T01:42:36.120Z,5.00
2022-09-16T01:45:50.288Z,4.85
2022-09-16T01:49:02.785Z,4.25
2022-09-16T01:52:18.936Z,4.75
2022-09-16T01:55:32.932Z,4.50
2022-09-16T01:58:44.886Z,4.63
2022-09-16T02:01:57.739Z,3.67
2022-09-16T02:05:13.180Z,4.10
2022-09-16T02:08:25.292Z,4.90
2022-09-16T02:11:35.550Z,4.20
2022-09-16T02:14:46.156Z,3.50
2022-09-16T02:21:14.682Z,4.13
2022-09-16T02:24:24.580Z,4.18
2022-09-16T02:27:36.673Z,3.65
2022-09-16T02:30:49.451Z,4.45
2022-09-16T02:34:01.917Z,4.10
2022-09-16T02:37:16.584Z,4.05
2022-09-16T02:40:27.800Z,4.35
2022-09-16T02:43:36.832Z,3.95
2022-09-16T02:46:52.708Z,4.10
2022-09-16T02:50:03.528Z,4.70
2022-09-16T02:53:21.374Z,4.10
2022-09-16T02:56:32.677Z,4.80
2022-09-16T02:59:42.051Z,6.15
2022-09-16T03:02:51.194Z,4.57
2022-09-16T03:06:19.658Z,4.55
2022-09-16T03:09:30.220Z,4.45
2022-09-16T03:12:49.747Z,4.82
2022-09-16T03:16:04.002Z,4.60
2022-09-16T03:19:17.665Z,4.78
2022-09-16T03:22:34.205Z,4.80
2022-09-16T03:25:50.818Z,4.63
2022-09-16T03:29:06.270Z,4.75
2022-09-16T03:32:21.165Z,4.40
2022-09-16T03:35:33.066Z,4.88
2022-09-16T03:38:42.601Z,4.38
2022-09-16T03:41:52.995Z,4.90
2022-09-16T03:45:02.016Z,5.18
2022-09-16T03:48:11.509Z,4.40
2022-09-16T03:51:20.545Z,4.95
2022-09-16T03:54:29.726Z,5.13
2022-09-16T03:57:40.231Z,4.88
2022-09-16T04:00:51.880Z,4.90
2022-09-16T04:04:00.924Z,4.97
2022-09-16T04:07:09.818Z,5.00
2022-09-16T04:10:19.084Z,5.22
2022-09-16T04:13:30.539Z,5.22
2022-09-16T04:16:43.007Z,5.13
2022-09-16T04:19:54.240Z,4.80
2022-09-16T04:23:03.212Z,5.20
2022-09-16T04:26:12.440Z,6.38
2022-09-16T04:29:22.823Z,4.93
2022-09-16T04:32:31.806Z,6.85
2022-09-16T04:35:40.816Z,5.75
2022-09-16T04:38:50.793Z,5.95
2022-09-16T04:42:01.226Z,5.63
2022-09-16T04:45:12.194Z,5.65
2022-09-16T04:48:21.240Z,5.57
2022-09-16T04:51:32.331Z,5.47
2022-09-16T04:54:41.272Z,5.30
2022-09-16T04:57:50.534Z,5.40
2022-09-16T05:01:07.179Z,5.18
2022-09-16T05:04:16.317Z,4.60
2022-09-16T05:07:25.813Z,4.50
2022-09-16T05:10:35.632Z,4.82
2022-09-16T05:13:44.800Z,4.57
2022-09-16T05:16:55.223Z,4.78
2022-09-16T05:20:04.749Z,4.82
2022-09-16T05:23:13.907Z,3.72
2022-09-16T05:26:25.053Z,4.38
2022-09-16T05:29:33.919Z,4.38
2022-09-16T05:32:44.183Z,4.10
2022-09-16T05:35:53.116Z,4.90
2022-09-16T05:45:41.541Z,4.28
2022-09-16T05:48:52.357Z,4.13
2022-09-16T05:52:01.386Z,4.07
2022-09-16T05:55:10.651Z,3.75
2022-09-16T05:58:19.681Z,3.33
2022-09-16T06:01:31.318Z,3.78
2022-09-16T06:04:42.634Z,3.60
2022-09-16T06:07:57.800Z,3.83
2022-09-16T06:11:09.285Z,3.67
2022-09-16T06:14:19.032Z,3.90
2022-09-16T06:17:28.022Z,3.33
2022-09-16T06:20:39.411Z,3.80
2022-09-16T06:23:48.363Z,3.28
2022-09-16T06:26:57.359Z,3.50
2022-09-16T06:30:07.103Z,3.53
2022-09-16T06:33:17.080Z,3.67
2022-09-16T06:36:28.942Z,3.73
2022-09-16T06:39:37.873Z,2.53
2022-09-16T06:42:46.862Z,2.90
2022-09-16T06:45:59.603Z,3.25
2022-09-16T06:49:11.121Z,5.55
2022-09-16T06:52:21.676Z,3.42
2022-09-16T06:55:32.866Z,2.75
2022-09-16T06:58:44.068Z,3.53
2022-09-16T07:01:53.196Z,2.05
2022-09-16T07:05:02.780Z,2.22
2022-09-16T07:08:13.097Z,2.38
2022-09-16T07:11:23.124Z,2.08
2022-09-16T07:14:32.709Z,1.63
2022-09-16T07:17:41.577Z,1.70
2022-09-16T07:20:50.441Z,2.22
2022-09-16T07:24:02.648Z,2.83
2022-09-16T07:27:11.578Z,2.40
2022-09-16T07:30:20.563Z,2.42
2022-09-16T07:33:29.694Z,1.98
2022-09-16T07:36:40.121Z,2.58
2022-09-16T07:39:50.624Z,1.92
2022-09-16T07:42:59.603Z,1.75
2022-09-16T07:46:10.634Z,2.47
2022-09-16T07:49:19.865Z,2.25
2022-09-16T07:52:30.524Z,1.90
2022-09-16T07:55:42.105Z,2.75
2022-09-16T07:58:51.002Z,2.42
2022-09-16T08:02:00.079Z,2.22
2022-09-16T08:05:10.098Z,2.05
2022-09-16T08:08:21.937Z,1.73
2022-09-16T08:11:32.743Z,2.70
2022-09-16T08:14:41.979Z,2.60
2022-09-16T08:17:50.991Z,1.90
2022-09-16T08:21:01.447Z,2.33
2022-09-16T08:24:11.282Z,2.42
2022-09-16T08:27:22.731Z,2.17
2022-09-16T08:30:31.945Z,1.60
2022-09-16T08:33:41.229Z,1.70
2022-09-16T08:36:50.359Z,2.45
2022-09-16T08:39:59.286Z,2.45
2022-09-16T08:43:17.055Z,1.88
2022-09-16T08:46:31.393Z,1.75
2022-09-16T08:49:45.601Z,1.42
2022-09-16T08:52:58.708Z,1.83
2022-09-16T08:56:12.465Z,2.17
2022-09-16T08:59:26.398Z,2.10
2022-09-16T09:05:57.104Z,2.28
2022-09-16T09:09:16.216Z,1.77
2022-09-16T09:12:32.467Z,2.53
2022-09-16T09:15:47.546Z,1.67
2022-09-16T09:19:05.797Z,2.35
2022-09-16T09:22:23.089Z,1.80
2022-09-16T09:25:40.769Z,1.63
2022-09-16T09:29:22.343Z,2.25
2022-09-16T09:32:49.481Z,1.95
2022-09-16T09:36:12.684Z,1.98
2022-09-16T09:39:31.885Z,2.25
2022-09-16T09:42:42.846Z,1.77
2022-09-16T09:45:57.918Z,2.00
2022-09-16T09:49:15.244Z,2.65
2022-09-16T09:52:38.694Z,2.00
2022-09-16T09:55:47.702Z,2.13
2022-09-16T09:59:02.682Z,2.00
2022-09-16T10:02:17.229Z,1.98
2022-09-16T10:05:28.855Z,2.20
2022-09-16T10:08:43.181Z,1.60
2022-09-16T10:11:55.224Z,2.30
2022-09-16T10:15:04.733Z,1.38
2022-09-16T10:18:15.406Z,1.77
2022-09-16T10:21:26.581Z,2.28
2022-09-16T10:24:37.576Z,1.50
2022-09-16T10:27:56.352Z,2.00
2022-09-16T10:31:08.507Z,1.38
2022-09-16T10:34:21.923Z,1.40
2022-09-16T10:37:32.313Z,1.42
2022-09-16T10:43:52.767Z,1.98
2022-09-16T10:47:03.440Z,1.30
2022-09-16T10:53:32.677Z,1.50
2022-09-16T10:56:49.458Z,1.63
2022-09-16T11:00:00.682Z,1.58
2022-09-16T11:03:30.500Z,1.35
2022-09-16T11:06:53.724Z,1.43
2022-09-16T11:10:11.244Z,1.83
2022-09-16T11:13:34.003Z,1.50
2022-09-16T11:16:54.513Z,1.65
2022-09-16T11:23:32.147Z,2.47
2022-09-16T11:26:49.720Z,0.88
2022-09-16T11:30:10.901Z,1.17
2022-09-16T11:33:26.636Z,1.42
2022-09-16T11:36:56.209Z,1.58
2022-09-16T11:40:16.963Z,1.02
2022-09-16T11:43:42.173Z,0.95
2022-09-16T11:47:00.803Z,1.23
2022-09-16T11:50:26.871Z,1.67
2022-09-16T11:53:53.303Z,1.73
2022-09-16T11:57:05.599Z,1.23
2022-09-16T12:00:18.764Z,1.00
2022-09-16T12:03:32.527Z,1.33
2022-09-16T12:06:47.701Z,1.35
2022-09-16T12:10:01.406Z,1.20
2022-09-16T12:13:15.661Z,1.63
2022-09-16T12:16:33.123Z,1.95
2022-09-16T12:19:47.940Z,1.60
2022-09-16T12:23:02.399Z,2.13
2022-09-16T12:26:14.852Z,1.60
2022-09-16T12:29:29.558Z,2.28
2022-09-16T12:32:50.844Z,1.63
2022-09-16T12:36:03.413Z,1.55
2022-09-16T12:39:12.884Z,2.30
2022-09-16T12:42:57.397Z,1.48
2022-09-16T12:46:37.409Z,1.10
2022-09-16T12:50:07.791Z,1.13
2022-09-16T12:56:54.107Z,1.88
2022-09-16T13:00:16.002Z,1.50
2022-09-16T13:03:28.091Z,1.52
2022-09-16T13:06:40.944Z,1.63
2022-09-16T13:09:49.920Z,1.85
2022-09-16T13:13:01.620Z,1.50
2022-09-16T13:16:11.261Z,1.77
2022-09-16T13:19:47.054Z,1.58
2022-09-16T13:23:06.376Z,1.45
2022-09-16T13:26:15.763Z,1.05
2022-09-16T13:29:40.095Z,0.88
2022-09-16T13:33:00.454Z,1.38
2022-09-16T13:36:19.036Z,1.52
2022-09-16T13:39:34.011Z,1.33
2022-09-16T13:42:42.955Z,1.17
2022-09-16T13:46:02.789Z,1.20
2022-09-16T13:49:18.452Z,1.63
2022-09-16T13:52:29.571Z,1.63
2022-09-16T13:55:41.601Z,1.65
2022-09-16T13:58:57.608Z,1.30
2022-09-16T14:02:15.919Z,1.05
2022-09-16T14:05:47.476Z,1.00
2022-09-16T14:09:00.449Z,1.50
2022-09-16T14:12:17.137Z,1.42
2022-09-16T14:15:29.081Z,1.17
2022-09-16T14:18:38.238Z,1.50
2022-09-16T14:21:47.308Z,1.00
2022-09-16T14:25:06.189Z,1.10
2022-09-16T14:28:24.386Z,1.50
2022-09-16T14:31:34.581Z,1.13
2022-09-16T14:34:43.674Z,1.75
2022-09-16T14:37:56.243Z,1.20
2022-09-16T14:41:07.549Z,1.30
2022-09-16T14:44:23.855Z,1.80
2022-09-16T14:47:50.495Z,1.08
2022-09-16T14:51:02.752Z,1.35
2022-09-16T14:54:18.702Z,1.00
2022-09-16T14:57:30.261Z,1.52
2022-09-16T15:00:44.359Z,1.33
2022-09-16T15:03:55.331Z,1.38
2022-09-16T15:07:12.499Z,2.35
2022-09-16T15:10:23.959Z,1.15
2022-09-16T15:13:39.231Z,1.17
2022-09-16T15:16:51.079Z,1.50
2022-09-16T15:20:01.084Z,1.40
2022-09-16T15:23:22.224Z,1.25
2022-09-16T15:26:33.042Z,1.50
2022-09-16T15:29:50.553Z,1.90
2022-09-16T15:33:00.866Z,1.20
2022-09-16T15:39:29.063Z,1.13
2022-09-16T15:42:38.780Z,1.40
2022-09-16T15:45:59.342Z,1.00
2022-09-16T15:49:14.664Z,1.38
2022-09-16T15:52:23.688Z,1.73
2022-09-16T15:55:36.560Z,1.58
2022-09-16T15:58:47.946Z,2.10
2022-09-16T16:01:58.493Z,1.40
2022-09-16T16:05:12.342Z,1.60
2022-09-16T16:08:40.168Z,1.45
2022-09-16T16:11:49.170Z,1.20
2022-09-16T16:14:58.716Z,1.70
2022-09-16T16:18:09.639Z,1.63
2022-09-16T16:21:21.369Z,2.35
2022-09-16T16:24:31.462Z,2.10
2022-09-16T16:27:40.582Z,2.05
2022-09-16T16:30:49.788Z,1.98
2022-09-16T16:34:00.402Z,1.92
2022-09-16T16:40:37.331Z,2.03
2022-09-16T16:43:46.585Z,3.47
2022-09-16T16:46:56.597Z,1.80
2022-09-16T16:50:06.317Z,1.80
2022-09-16T16:53:16.639Z,2.05
2022-09-16T16:56:25.617Z,1.63
2022-09-16T16:59:34.818Z,2.10
2022-09-16T17:02:44.789Z,2.08
2022-09-16T17:05:53.771Z,2.22
2022-09-16T17:09:04.525Z,2.30
2022-09-16T17:12:13.990Z,2.30
2022-09-16T17:15:22.881Z,2.47
2022-09-16T17:18:31.856Z,2.55
2022-09-16T17:21:41.251Z,2.90
2022-09-16T17:24:51.609Z,2.63
2022-09-16T17:28:00.542Z,2.72
2022-09-16T17:31:12.963Z,3.03
2022-09-16T17:34:22.062Z,3.83
2022-09-16T17:37:31.200Z,3.10
2022-09-16T17:40:41.718Z,3.00
2022-09-16T17:46:59.714Z,2.90
2022-09-16T17:50:10.013Z,3.17
2022-09-16T17:53:19.262Z,3.33
2022-09-16T17:56:29.766Z,2.78
2022-09-16T18:02:47.728Z,3.03
2022-09-16T18:06:05.025Z,3.03
2022-09-16T18:09:16.306Z,3.40
2022-09-16T18:12:26.700Z,3.50
2022-09-16T18:15:35.715Z,3.88
2022-09-16T18:18:45.746Z,3.63
2022-09-16T18:21:54.977Z,3.47
2022-09-16T18:25:04.777Z,3.75
2022-09-16T18:28:15.102Z,4.30
2022-09-16T18:31:25.086Z,4.28
2022-09-16T18:34:35.214Z,4.30
2022-09-16T18:37:44.133Z,4.22
2022-09-16T18:40:53.467Z,3.92
2022-09-16T18:44:07.552Z,4.40
2022-09-16T18:47:16.645Z,4.53
2022-09-16T18:50:26.774Z,4.32
2022-09-16T18:53:35.643Z,4.35
2022-09-16T18:56:44.559Z,3.60
2022-09-16T18:59:55.065Z,3.20
2022-09-16T19:06:12.826Z,4.30
2022-09-16T19:09:23.512Z,4.93
2022-09-16T19:15:48.853Z,4.60
2022-09-16T19:18:58.214Z,4.22
2022-09-16T19:22:07.108Z,4.38
2022-09-16T19:25:16.151Z,4.68
2022-09-16T19:28:25.184Z,4.18
2022-09-16T19:31:36.566Z,4.68
2022-09-16T19:34:45.501Z,4.82
2022-09-16T19:37:54.911Z,5.68
2022-09-16T19:41:04.877Z,5.68
2022-09-16T19:44:15.732Z,6.28
2022-09-16T19:47:26.112Z,4.72
2022-09-16T19:50:35.154Z,5.25
2022-09-16T19:53:45.440Z,5.20
2022-09-16T19:56:54.578Z,5.53
2022-09-16T20:00:05.699Z,5.30
2022-09-16T20:03:22.044Z,5.55
2022-09-16T20:06:32.674Z,5.15
2022-09-16T20:09:41.684Z,4.85
2022-09-16T20:12:57.322Z,4.60
2022-09-16T20:16:10.034Z,4.05
2022-09-16T20:19:21.145Z,4.90
2022-09-16T20:22:30.094Z,4.10
2022-09-16T20:25:38.989Z,5.18
2022-09-16T20:28:50.186Z,5.15
2022-09-16T20:31:59.300Z,5.80
2022-09-16T20:35:10.476Z,6.47
2022-09-16T20:38:19.482Z,4.90
2022-09-16T20:41:30.184Z,5.13
2022-09-16T20:44:39.206Z,4.75
2022-09-16T20:47:52.167Z,4.60
2022-09-16T20:51:06.405Z,5.63
2022-09-16T20:54:16.808Z,4.07
2022-09-16T20:57:25.753Z,4.72
2022-09-16T21:00:34.980Z,4.07
2022-09-16T21:03:44.978Z,4.45
2022-09-16T21:06:55.390Z,5.40
2022-09-16T21:10:05.258Z,4.30
2022-09-16T21:13:14.685Z,4.90
2022-09-16T21:16:24.847Z,5.75
2022-09-16T21:19:33.783Z,4.60
2022-09-16T21:22:44.802Z,4.95
2022-09-16T21:25:54.139Z,4.65
2022-09-16T21:29:06.540Z,5.25
2022-09-16T21:32:15.518Z,4.75
2022-09-16T21:35:24.544Z,5.03
2022-09-16T21:38:35.177Z,4.80
2022-09-16T21:44:58.027Z,5.18
2022-09-16T21:48:06.967Z,4.88
2022-09-16T21:51:17.649Z,4.63
2022-09-16T21:57:37.011Z,5.82
2022-09-16T22:00:46.032Z,6.22
2022-09-16T22:03:56.711Z,4.70
2022-09-16T22:10:21.521Z,4.00
2022-09-16T22:13:31.593Z,4.72
2022-09-16T22:16:41.723Z,4.38
2022-09-16T22:19:50.760Z,4.72
2022-09-16T22:22:59.720Z,4.88
2022-09-16T22:26:11.721Z,4.60
2022-09-16T22:29:20.720Z,4.60
2022-09-16T22:32:29.675Z,4.32
2022-09-16T22:35:38.644Z,3.97
2022-09-16T22:38:48.450Z,4.65
2022-09-16T22:41:58.861Z,4.07
2022-09-16T22:45:08.731Z,4.35
2022-09-16T22:48:19.005Z,4.03
2022-09-16T22:51:28.984Z,3.47
2022-09-16T22:54:37.911Z,4.05
2022-09-16T22:57:48.208Z,4.40
2022-09-16T23:01:03.221Z,3.92
2022-09-16T23:04:12.166Z,4.07
2022-09-16T23:07:21.089Z,3.95
2022-09-16T23:10:30.149Z,3.83
2022-09-16T23:13:42.562Z,3.70
2022-09-16T23:16:51.541Z,3.97
2022-09-16T23:20:00.696Z,3.95
2022-09-16T23:23:09.940Z,3.55
2022-09-16T23:26:19.998Z,3.20
2022-09-16T23:29:30.421Z,4.07
2022-09-16T23:32:39.383Z,3.47
2022-09-16T23:35:48.826Z,3.80
2022-09-16T23:38:58.621Z,3.85
2022-09-16T23:42:07.825Z,4.07
2022-09-16T23:45:18.290Z,4.00
2022-09-16T23:48:27.178Z,3.38
2022-09-16T23:51:36.678Z,3.38
2022-09-16T23:54:46.380Z,3.28
2022-09-16T23:57:55.601Z,3.28
